Mountain Home Air Force Base Mountain Home US
ICAO: KMUO
IATA: MUO
Category: Large
Scheduled Services: No

Elevation: 2996 ft
TransAlt. 18000 ft.

Airport Communications:
APP:124.8
ATIS:27.35
CLNC DEL:127.1
DEP:37.12
GND:120.5
PMSV METRO:34.25
ACC COMD POST:38.13
PTD:138.9
BOISE RDO:122.6
TWR:133.85

KMUO Zoom In..

Runways:

(A) RW 12 length 13508 ft width 200 ft
ILS 110.30 / hdg 117

(B) RW 30 length 13508 ft width 200 ft
ILS 111.70 / hdg 297

Location; KMUO
Day. 19 / Time. 02.58 Zulu
* Altimeter: 29.95
* Temperature: 34° c. 93.2°f.
* Wind from: 340° Speed 10 kn.
Dewpoint: -07° c.
Visibility: 10 Statute Miles.
Clouds: Clear (automated report).

KMUO 190258Z AUTO 34010KT 10SM CLR 34/M07 A2995 RMK AO2 SLP107 T03371069 55002 $


Wind From 340°
Speed 10 kn.

 
 
jpsmedia.com for Web Design worldairports.se 2018   terms of use